sensor_id;sensor_type;location;lat;lon;timestamp;temperature;humidity
21807;DHT22;11065;50.786;7.840;2022-11-15T00:00:39;11.90;55.40
21807;DHT22;11065;50.786;7.840;2022-11-15T00:03:27;11.90;55.50
21807;DHT22;11065;50.786;7.840;2022-11-15T00:06:13;11.80;55.60
21807;DHT22;11065;50.786;7.840;2022-11-15T00:08:59;11.80;55.70
21807;DHT22;11065;50.786;7.840;2022-11-15T00:11:45;11.80;55.80
21807;DHT22;11065;50.786;7.840;2022-11-15T00:14:30;11.80;56.30
21807;DHT22;11065;50.786;7.840;2022-11-15T00:17:15;11.90;56.90
21807;DHT22;11065;50.786;7.840;2022-11-15T00:20:01;11.80;57.00
21807;DHT22;11065;50.786;7.840;2022-11-15T00:22:46;11.90;57.60
21807;DHT22;11065;50.786;7.840;2022-11-15T00:25:32;12.00;57.40
21807;DHT22;11065;50.786;7.840;2022-11-15T00:28:17;12.10;57.40
21807;DHT22;11065;50.786;7.840;2022-11-15T00:31:05;12.10;57.60
21807;DHT22;11065;50.786;7.840;2022-11-15T00:33:51;12.20;58.30
21807;DHT22;11065;50.786;7.840;2022-11-15T00:36:36;12.30;58.90
21807;DHT22;11065;50.786;7.840;2022-11-15T00:39:22;12.40;58.70
21807;DHT22;11065;50.786;7.840;2022-11-15T00:42:07;12.60;58.60
21807;DHT22;11065;50.786;7.840;2022-11-15T00:44:53;12.60;58.70
21807;DHT22;11065;50.786;7.840;2022-11-15T00:47:38;12.70;58.70
21807;DHT22;11065;50.786;7.840;2022-11-15T00:50:24;12.80;58.70
21807;DHT22;11065;50.786;7.840;2022-11-15T00:53:09;12.90;58.90
21807;DHT22;11065;50.786;7.840;2022-11-15T00:55:54;13.00;58.80
21807;DHT22;11065;50.786;7.840;2022-11-15T00:58:40;13.10;58.60
21807;DHT22;11065;50.786;7.840;2022-11-15T01:01:25;13.10;58.50
21807;DHT22;11065;50.786;7.840;2022-11-15T01:04:11;13.20;58.50
21807;DHT22;11065;50.786;7.840;2022-11-15T01:06:56;13.30;58.90
21807;DHT22;11065;50.786;7.840;2022-11-15T01:09:42;13.30;58.30
21807;DHT22;11065;50.786;7.840;2022-11-15T01:12:27;13.40;58.30
21807;DHT22;11065;50.786;7.840;2022-11-15T01:15:12;13.40;58.30
21807;DHT22;11065;50.786;7.840;2022-11-15T01:17:58;13.40;58.20
21807;DHT22;11065;50.786;7.840;2022-11-15T01:20:43;13.50;58.20
21807;DHT22;11065;50.786;7.840;2022-11-15T01:23:29;13.50;58.10
21807;DHT22;11065;50.786;7.840;2022-11-15T01:26:15;13.50;58.10
21807;DHT22;11065;50.786;7.840;2022-11-15T01:29:01;13.60;58.20
21807;DHT22;11065;50.786;7.840;2022-11-15T01:31:47;13.60;58.20
21807;DHT22;11065;50.786;7.840;2022-11-15T01:34:32;13.60;58.60
21807;DHT22;11065;50.786;7.840;2022-11-15T01:37:18;13.60;58.20
21807;DHT22;11065;50.786;7.840;2022-11-15T01:40:04;13.60;58.20
21807;DHT22;11065;50.786;7.840;2022-11-15T01:42:50;13.60;58.20
21807;DHT22;11065;50.786;7.840;2022-11-15T01:45:36;13.70;58.20
21807;DHT22;11065;50.786;7.840;2022-11-15T01:48:23;13.70;58.20
21807;DHT22;11065;50.786;7.840;2022-11-15T01:51:12;13.70;58.20
21807;DHT22;11065;50.786;7.840;2022-11-15T01:54:02;13.60;58.20
21807;DHT22;11065;50.786;7.840;2022-11-15T01:57:05;13.70;58.30
21807;DHT22;11065;50.786;7.840;2022-11-15T01:59:52;13.70;58.40
21807;DHT22;11065;50.786;7.840;2022-11-15T02:02:38;13.70;58.10
21807;DHT22;11065;50.786;7.840;2022-11-15T02:05:24;13.70;58.20
21807;DHT22;11065;50.786;7.840;2022-11-15T02:08:10;13.70;58.20
21807;DHT22;11065;50.786;7.840;2022-11-15T02:11:08;13.70;58.20
21807;DHT22;11065;50.786;7.840;2022-11-15T02:13:55;13.70;58.30
21807;DHT22;11065;50.786;7.840;2022-11-15T02:20:08;13.70;58.80
21807;DHT22;11065;50.786;7.840;2022-11-15T02:26:34;13.70;58.30
21807;DHT22;11065;50.786;7.840;2022-11-15T02:29:59;13.70;58.70
21807;DHT22;11065;50.786;7.840;2022-11-15T02:33:12;13.70;58.60
21807;DHT22;11065;50.786;7.840;2022-11-15T02:36:02;13.70;58.60
21807;DHT22;11065;50.786;7.840;2022-11-15T02:42:27;13.80;58.70
21807;DHT22;11065;50.786;7.840;2022-11-15T02:45:37;13.80;58.20
21807;DHT22;11065;50.786;7.840;2022-11-15T02:48:24;13.80;58.10
21807;DHT22;11065;50.786;7.840;2022-11-15T02:51:11;13.80;58.10
21807;DHT22;11065;50.786;7.840;2022-11-15T02:53:57;13.80;58.20
21807;DHT22;11065;50.786;7.840;2022-11-15T02:56:45;13.90;58.20
21807;DHT22;11065;50.786;7.840;2022-11-15T02:59:50;13.90;58.30
21807;DHT22;11065;50.786;7.840;2022-11-15T03:05:56;14.00;58.20
21807;DHT22;11065;50.786;7.840;2022-11-15T03:09:05;14.00;58.30
21807;DHT22;11065;50.786;7.840;2022-11-15T03:12:01;14.00;58.20
21807;DHT22;11065;50.786;7.840;2022-11-15T03:15:00;14.00;58.00
21807;DHT22;11065;50.786;7.840;2022-11-15T03:18:02;14.00;57.90
21807;DHT22;11065;50.786;7.840;2022-11-15T03:20:50;14.00;58.00
21807;DHT22;11065;50.786;7.840;2022-11-15T03:23:38;14.00;57.80
21807;DHT22;11065;50.786;7.840;2022-11-15T03:26:25;14.00;57.90
21807;DHT22;11065;50.786;7.840;2022-11-15T03:29:15;14.00;57.90
21807;DHT22;11065;50.786;7.840;2022-11-15T03:32:07;13.90;58.00
21807;DHT22;11065;50.786;7.840;2022-11-15T03:35:15;14.00;58.10
21807;DHT22;11065;50.786;7.840;2022-11-15T03:38:08;14.00;58.40
21807;DHT22;11065;50.786;7.840;2022-11-15T03:41:01;14.00;58.00
21807;DHT22;11065;50.786;7.840;2022-11-15T03:44:04;14.00;58.20
21807;DHT22;11065;50.786;7.840;2022-11-15T03:47:13;14.10;58.30
21807;DHT22;11065;50.786;7.840;2022-11-15T03:50:10;14.10;58.40
21807;DHT22;11065;50.786;7.840;2022-11-15T03:52:57;14.10;58.30
21807;DHT22;11065;50.786;7.840;2022-11-15T03:55:43;14.10;58.10
21807;DHT22;11065;50.786;7.840;2022-11-15T03:58:28;14.20;58.20
21807;DHT22;11065;50.786;7.840;2022-11-15T04:01:14;14.20;58.20
21807;DHT22;11065;50.786;7.840;2022-11-15T04:03:59;14.20;58.20
21807;DHT22;11065;50.786;7.840;2022-11-15T04:06:45;14.20;58.20
21807;DHT22;11065;50.786;7.840;2022-11-15T04:09:30;14.30;58.20
21807;DHT22;11065;50.786;7.840;2022-11-15T04:12:15;14.30;58.10
21807;DHT22;11065;50.786;7.840;2022-11-15T04:15:17;14.30;58.10
21807;DHT22;11065;50.786;7.840;2022-11-15T04:18:03;14.30;58.10
21807;DHT22;11065;50.786;7.840;2022-11-15T04:20:49;14.30;58.10
21807;DHT22;11065;50.786;7.840;2022-11-15T04:23:53;14.40;58.10
21807;DHT22;11065;50.786;7.840;2022-11-15T04:26:38;14.40;58.20
21807;DHT22;11065;50.786;7.840;2022-11-15T04:29:23;14.40;58.20
21807;DHT22;11065;50.786;7.840;2022-11-15T04:32:21;14.40;58.10
21807;DHT22;11065;50.786;7.840;2022-11-15T04:35:06;14.40;58.10
21807;DHT22;11065;50.786;7.840;2022-11-15T04:37:52;14.40;58.10
21807;DHT22;11065;50.786;7.840;2022-11-15T04:40:38;14.40;58.00
21807;DHT22;11065;50.786;7.840;2022-11-15T04:43:23;14.40;58.10
21807;DHT22;11065;50.786;7.840;2022-11-15T04:46:08;14.40;58.10
21807;DHT22;11065;50.786;7.840;2022-11-15T04:48:54;14.40;58.20
21807;DHT22;11065;50.786;7.840;2022-11-15T04:51:43;14.40;58.30
21807;DHT22;11065;50.786;7.840;2022-11-15T04:54:29;14.40;58.30
21807;DHT22;11065;50.786;7.840;2022-11-15T04:57:14;14.50;58.40
21807;DHT22;11065;50.786;7.840;2022-11-15T05:00:00;14.50;58.40
21807;DHT22;11065;50.786;7.840;2022-11-15T05:02:45;14.50;58.40
21807;DHT22;11065;50.786;7.840;2022-11-15T05:06:09;14.50;58.30
21807;DHT22;11065;50.786;7.840;2022-11-15T05:08:55;14.60;58.30
21807;DHT22;11065;50.786;7.840;2022-11-15T05:11:40;14.60;58.30
21807;DHT22;11065;50.786;7.840;2022-11-15T05:14:26;14.50;58.20
21807;DHT22;11065;50.786;7.840;2022-11-15T05:17:12;14.50;58.30
21807;DHT22;11065;50.786;7.840;2022-11-15T05:19:57;14.50;58.20
21807;DHT22;11065;50.786;7.840;2022-11-15T05:22:43;14.60;58.30
21807;DHT22;11065;50.786;7.840;2022-11-15T05:25:28;14.60;58.20
21807;DHT22;11065;50.786;7.840;2022-11-15T05:28:13;14.60;58.20
21807;DHT22;11065;50.786;7.840;2022-11-15T05:31:03;14.60;58.20
21807;DHT22;11065;50.786;7.840;2022-11-15T05:33:49;14.60;58.20
21807;DHT22;11065;50.786;7.840;2022-11-15T05:36:38;14.60;58.10
21807;DHT22;11065;50.786;7.840;2022-11-15T05:39:25;14.60;58.10
21807;DHT22;11065;50.786;7.840;2022-11-15T05:42:15;14.60;58.10
21807;DHT22;11065;50.786;7.840;2022-11-15T05:45:03;14.60;58.10
21807;DHT22;11065;50.786;7.840;2022-11-15T05:47:51;14.60;58.00
21807;DHT22;11065;50.786;7.840;2022-11-15T05:50:38;14.60;57.90
21807;DHT22;11065;50.786;7.840;2022-11-15T05:53:26;14.60;57.70
21807;DHT22;11065;50.786;7.840;2022-11-15T05:56:12;14.60;57.60
21807;DHT22;11065;50.786;7.840;2022-11-15T05:58:59;14.50;57.60
21807;DHT22;11065;50.786;7.840;2022-11-15T06:01:44;14.50;57.60
21807;DHT22;11065;50.786;7.840;2022-11-15T06:04:29;14.50;57.70
21807;DHT22;11065;50.786;7.840;2022-11-15T06:07:15;14.50;57.70
21807;DHT22;11065;50.786;7.840;2022-11-15T06:10:00;14.40;57.60
21807;DHT22;11065;50.786;7.840;2022-11-15T06:12:45;14.40;57.60
21807;DHT22;11065;50.786;7.840;2022-11-15T06:15:32;14.40;57.60
21807;DHT22;11065;50.786;7.840;2022-11-15T06:18:19;14.40;57.60
21807;DHT22;11065;50.786;7.840;2022-11-15T06:21:05;14.40;57.60
21807;DHT22;11065;50.786;7.840;2022-11-15T06:23:50;14.40;57.50
21807;DHT22;11065;50.786;7.840;2022-11-15T06:26:36;14.40;57.50
21807;DHT22;11065;50.786;7.840;2022-11-15T06:29:21;14.30;57.30
21807;DHT22;11065;50.786;7.840;2022-11-15T06:32:06;14.30;57.20
21807;DHT22;11065;50.786;7.840;2022-11-15T06:34:52;14.20;57.20
21807;DHT22;11065;50.786;7.840;2022-11-15T06:37:37;14.20;57.60
21807;DHT22;11065;50.786;7.840;2022-11-15T06:40:23;14.10;57.20
21807;DHT22;11065;50.786;7.840;2022-11-15T06:43:08;14.20;57.30
21807;DHT22;11065;50.786;7.840;2022-11-15T06:45:54;14.10;57.40
21807;DHT22;11065;50.786;7.840;2022-11-15T06:48:39;14.10;57.50
21807;DHT22;11065;50.786;7.840;2022-11-15T06:51:25;14.10;57.60
21807;DHT22;11065;50.786;7.840;2022-11-15T06:54:10;14.10;57.60
21807;DHT22;11065;50.786;7.840;2022-11-15T06:56:55;14.10;57.60
21807;DHT22;11065;50.786;7.840;2022-11-15T06:59:41;14.10;57.60
21807;DHT22;11065;50.786;7.840;2022-11-15T07:02:26;14.10;57.60
21807;DHT22;11065;50.786;7.840;2022-11-15T07:05:12;14.10;57.60
21807;DHT22;11065;50.786;7.840;2022-11-15T07:07:59;14.20;57.70
21807;DHT22;11065;50.786;7.840;2022-11-15T07:10:44;14.20;57.70
21807;DHT22;11065;50.786;7.840;2022-11-15T07:13:31;14.20;57.60
21807;DHT22;11065;50.786;7.840;2022-11-15T07:16:20;14.20;57.60
21807;DHT22;11065;50.786;7.840;2022-11-15T07:19:05;14.20;57.60
21807;DHT22;11065;50.786;7.840;2022-11-15T07:21:51;14.30;57.60
21807;DHT22;11065;50.786;7.840;2022-11-15T07:24:36;14.30;57.60
21807;DHT22;11065;50.786;7.840;2022-11-15T07:27:23;14.30;57.50
21807;DHT22;11065;50.786;7.840;2022-11-15T07:30:08;14.30;57.50
21807;DHT22;11065;50.786;7.840;2022-11-15T07:32:55;14.30;57.30
21807;DHT22;11065;50.786;7.840;2022-11-15T07:35:41;14.40;57.30
21807;DHT22;11065;50.786;7.840;2022-11-15T07:38:28;14.40;57.30
21807;DHT22;11065;50.786;7.840;2022-11-15T07:41:13;14.40;57.30
21807;DHT22;11065;50.786;7.840;2022-11-15T07:43:59;14.40;57.20
21807;DHT22;11065;50.786;7.840;2022-11-15T07:46:45;14.40;57.20
21807;DHT22;11065;50.786;7.840;2022-11-15T07:49:30;14.40;57.20
21807;DHT22;11065;50.786;7.840;2022-11-15T07:52:16;14.40;57.20
21807;DHT22;11065;50.786;7.840;2022-11-15T07:55:01;14.40;57.20
21807;DHT22;11065;50.786;7.840;2022-11-15T07:57:46;14.40;57.20
21807;DHT22;11065;50.786;7.840;2022-11-15T08:00:33;14.50;57.20
21807;DHT22;11065;50.786;7.840;2022-11-15T08:03:18;14.50;57.30
21807;DHT22;11065;50.786;7.840;2022-11-15T08:06:04;14.50;57.30
21807;DHT22;11065;50.786;7.840;2022-11-15T08:08:49;14.50;57.30
21807;DHT22;11065;50.786;7.840;2022-11-15T08:11:34;14.60;57.30
21807;DHT22;11065;50.786;7.840;2022-11-15T08:14:20;14.60;57.20
21807;DHT22;11065;50.786;7.840;2022-11-15T08:17:06;14.60;57.20
21807;DHT22;11065;50.786;7.840;2022-11-15T08:19:52;14.70;57.30
21807;DHT22;11065;50.786;7.840;2022-11-15T08:22:37;14.70;57.20
21807;DHT22;11065;50.786;7.840;2022-11-15T08:25:23;14.70;57.30
21807;DHT22;11065;50.786;7.840;2022-11-15T08:28:11;14.80;57.30
21807;DHT22;11065;50.786;7.840;2022-11-15T08:30:56;14.80;57.40
21807;DHT22;11065;50.786;7.840;2022-11-15T08:33:42;14.90;57.40
21807;DHT22;11065;50.786;7.840;2022-11-15T08:36:28;15.00;57.50
21807;DHT22;11065;50.786;7.840;2022-11-15T08:39:26;15.10;57.40
21807;DHT22;11065;50.786;7.840;2022-11-15T08:42:11;15.20;57.30
21807;DHT22;11065;50.786;7.840;2022-11-15T08:45:04;15.30;57.40
21807;DHT22;11065;50.786;7.840;2022-11-15T08:47:50;15.40;57.40
21807;DHT22;11065;50.786;7.840;2022-11-15T08:50:38;15.60;57.50
21807;DHT22;11065;50.786;7.840;2022-11-15T08:53:24;15.70;57.70
21807;DHT22;11065;50.786;7.840;2022-11-15T08:56:12;15.90;57.60
21807;DHT22;11065;50.786;7.840;2022-11-15T08:58:57;16.10;57.00
21807;DHT22;11065;50.786;7.840;2022-11-15T09:01:43;16.20;56.80
21807;DHT22;11065;50.786;7.840;2022-11-15T09:04:28;16.30;56.60
21807;DHT22;11065;50.786;7.840;2022-11-15T09:07:14;16.40;56.40
21807;DHT22;11065;50.786;7.840;2022-11-15T09:09:59;16.50;56.80
21807;DHT22;11065;50.786;7.840;2022-11-15T09:12:45;16.60;56.80
21807;DHT22;11065;50.786;7.840;2022-11-15T09:15:33;16.70;56.50
21807;DHT22;11065;50.786;7.840;2022-11-15T09:18:18;16.90;56.20
21807;DHT22;11065;50.786;7.840;2022-11-15T09:21:07;17.00;56.70
21807;DHT22;11065;50.786;7.840;2022-11-15T09:23:53;17.30;57.10
21807;DHT22;11065;50.786;7.840;2022-11-15T09:26:38;17.60;57.30
21807;DHT22;11065;50.786;7.840;2022-11-15T09:29:24;17.90;57.00
21807;DHT22;11065;50.786;7.840;2022-11-15T09:32:28;18.20;55.90
21807;DHT22;11065;50.786;7.840;2022-11-15T09:35:22;18.30;55.20
21807;DHT22;11065;50.786;7.840;2022-11-15T09:38:07;18.50;54.80
21807;DHT22;11065;50.786;7.840;2022-11-15T09:41:08;18.50;54.50
21807;DHT22;11065;50.786;7.840;2022-11-15T09:44:16;18.50;53.50
21807;DHT22;11065;50.786;7.840;2022-11-15T09:50:51;18.40;52.20
21807;DHT22;11065;50.786;7.840;2022-11-15T09:53:30;18.40;52.60
21807;DHT22;11065;50.786;7.840;2022-11-15T09:56:23;18.30;52.60
21807;DHT22;11065;50.786;7.840;2022-11-15T10:02:08;18.30;52.80
21807;DHT22;11065;50.786;7.840;2022-11-15T10:04:37;18.20;51.60
21807;DHT22;11065;50.786;7.840;2022-11-15T10:07:14;18.30;53.00
21807;DHT22;11065;50.786;7.840;2022-11-15T10:09:50;18.30;52.60
21807;DHT22;11065;50.786;7.840;2022-11-15T10:12:18;18.50;54.10
21807;DHT22;11065;50.786;7.840;2022-11-15T10:14:46;18.90;55.50
21807;DHT22;11065;50.786;7.840;2022-11-15T10:17:38;19.40;55.60
21807;DHT22;11065;50.786;7.840;2022-11-15T10:20:22;20.00;53.50
21807;DHT22;11065;50.786;7.840;2022-11-15T10:22:50;20.40;53.10
21807;DHT22;11065;50.786;7.840;2022-11-15T10:27:47;20.90;51.50
21807;DHT22;11065;50.786;7.840;2022-11-15T10:30:18;21.00;50.90
21807;DHT22;11065;50.786;7.840;2022-11-15T10:32:47;21.00;49.40
21807;DHT22;11065;50.786;7.840;2022-11-15T10:35:26;21.00;50.00
21807;DHT22;11065;50.786;7.840;2022-11-15T10:38:08;21.00;50.20
21807;DHT22;11065;50.786;7.840;2022-11-15T10:40:36;21.30;50.90
21807;DHT22;11065;50.786;7.840;2022-11-15T10:43:18;21.70;52.90
21807;DHT22;11065;50.786;7.840;2022-11-15T10:45:46;22.30;51.50
21807;DHT22;11065;50.786;7.840;2022-11-15T10:50:41;23.30;50.50
21807;DHT22;11065;50.786;7.840;2022-11-15T10:53:24;23.70;50.20
21807;DHT22;11065;50.786;7.840;2022-11-15T10:55:54;24.10;48.40
21807;DHT22;11065;50.786;7.840;2022-11-15T10:58:41;24.40;49.50
21807;DHT22;11065;50.786;7.840;2022-11-15T11:01:19;24.80;47.10
21807;DHT22;11065;50.786;7.840;2022-11-15T11:04:08;25.00;46.70
21807;DHT22;11065;50.786;7.840;2022-11-15T11:09:28;25.30;42.40
21807;DHT22;11065;50.786;7.840;2022-11-15T11:11:55;25.40;44.80
21807;DHT22;11065;50.786;7.840;2022-11-15T11:14:31;25.60;46.40
21807;DHT22;11065;50.786;7.840;2022-11-15T11:17:13;25.90;45.70
21807;DHT22;11065;50.786;7.840;2022-11-15T11:20:02;26.10;45.60
21807;DHT22;11065;50.786;7.840;2022-11-15T11:22:37;26.40;44.50
21807;DHT22;11065;50.786;7.840;2022-11-15T11:25:28;26.50;44.60
21807;DHT22;11065;50.786;7.840;2022-11-15T11:28:32;26.40;42.00
21807;DHT22;11065;50.786;7.840;2022-11-15T11:33:44;25.90;42.90
21807;DHT22;11065;50.786;7.840;2022-11-15T11:39:30;25.50;41.70
21807;DHT22;11065;50.786;7.840;2022-11-15T11:47:31;25.10;41.60
21807;DHT22;11065;50.786;7.840;2022-11-15T11:50:14;24.80;41.90
21807;DHT22;11065;50.786;7.840;2022-11-15T11:53:02;24.60;41.80
21807;DHT22;11065;50.786;7.840;2022-11-15T11:55:53;24.30;42.40
21807;DHT22;11065;50.786;7.840;2022-11-15T11:58:26;24.00;42.10
21807;DHT22;11065;50.786;7.840;2022-11-15T12:01:14;23.80;42.40
21807;DHT22;11065;50.786;7.840;2022-11-15T12:04:01;23.50;41.80
21807;DHT22;11065;50.786;7.840;2022-11-15T12:06:38;23.30;42.40
21807;DHT22;11065;50.786;7.840;2022-11-15T12:09:35;23.10;42.50
21807;DHT22;11065;50.786;7.840;2022-11-15T12:14:56;22.70;42.30
21807;DHT22;11065;50.786;7.840;2022-11-15T12:17:26;22.60;42.90
21807;DHT22;11065;50.786;7.840;2022-11-15T12:19:58;22.40;42.70
21807;DHT22;11065;50.786;7.840;2022-11-15T12:30:52;21.70;42.90
21807;DHT22;11065;50.786;7.840;2022-11-15T12:33:38;21.50;42.70
21807;DHT22;11065;50.786;7.840;2022-11-15T12:36:32;21.50;43.40
21807;DHT22;11065;50.786;7.840;2022-11-15T12:39:08;21.50;42.90
21807;DHT22;11065;50.786;7.840;2022-11-15T12:41:37;21.50;43.60
21807;DHT22;11065;50.786;7.840;2022-11-15T12:44:10;21.40;43.50
21807;DHT22;11065;50.786;7.840;2022-11-15T12:57:28;21.30;43.50
21807;DHT22;11065;50.786;7.840;2022-11-15T13:02:30;21.20;43.40
21807;DHT22;11065;50.786;7.840;2022-11-15T13:10:32;21.00;43.20
21807;DHT22;11065;50.786;7.840;2022-11-15T13:13:01;20.90;43.10
21807;DHT22;11065;50.786;7.840;2022-11-15T13:15:45;20.90;43.40
21807;DHT22;11065;50.786;7.840;2022-11-15T13:18:34;20.90;42.50
21807;DHT22;11065;50.786;7.840;2022-11-15T13:21:03;20.90;43.20
21807;DHT22;11065;50.786;7.840;2022-11-15T13:23:53;20.90;43.70
21807;DHT22;11065;50.786;7.840;2022-11-15T13:26:19;20.90;43.60
21807;DHT22;11065;50.786;7.840;2022-11-15T13:28:51;20.90;43.60
21807;DHT22;11065;50.786;7.840;2022-11-15T13:31:28;20.90;43.70
21807;DHT22;11065;50.786;7.840;2022-11-15T13:34:22;20.80;43.60
21807;DHT22;11065;50.786;7.840;2022-11-15T13:37:28;20.80;43.20
21807;DHT22;11065;50.786;7.840;2022-11-15T13:40:15;20.70;43.20
21807;DHT22;11065;50.786;7.840;2022-11-15T13:42:42;20.60;43.50
21807;DHT22;11065;50.786;7.840;2022-11-15T13:45:15;20.50;43.80
21807;DHT22;11065;50.786;7.840;2022-11-15T13:47:42;20.40;43.80
21807;DHT22;11065;50.786;7.840;2022-11-15T13:50:13;20.40;44.50
21807;DHT22;11065;50.786;7.840;2022-11-15T13:52:43;20.30;44.10
21807;DHT22;11065;50.786;7.840;2022-11-15T13:55:18;20.20;44.00
21807;DHT22;11065;50.786;7.840;2022-11-15T13:57:52;20.20;44.10
21807;DHT22;11065;50.786;7.840;2022-11-15T14:02:57;20.00;44.10
21807;DHT22;11065;50.786;7.840;2022-11-15T14:05:31;19.90;44.30
21807;DHT22;11065;50.786;7.840;2022-11-15T14:08:11;19.90;44.40
21807;DHT22;11065;50.786;7.840;2022-11-15T14:10:39;19.80;44.50
21807;DHT22;11065;50.786;7.840;2022-11-15T14:13:30;19.80;44.60
21807;DHT22;11065;50.786;7.840;2022-11-15T14:16:20;19.70;44.50
21807;DHT22;11065;50.786;7.840;2022-11-15T14:18:50;19.60;44.60
21807;DHT22;11065;50.786;7.840;2022-11-15T14:21:18;19.60;44.70
21807;DHT22;11065;50.786;7.840;2022-11-15T14:23:45;19.50;44.70
21807;DHT22;11065;50.786;7.840;2022-11-15T14:26:33;19.40;44.70
21807;DHT22;11065;50.786;7.840;2022-11-15T14:29:23;19.20;44.70
21807;DHT22;11065;50.786;7.840;2022-11-15T14:31:50;19.10;44.90
21807;DHT22;11065;50.786;7.840;2022-11-15T14:34:17;19.00;44.80
21807;DHT22;11065;50.786;7.840;2022-11-15T14:36:44;18.90;45.00
21807;DHT22;11065;50.786;7.840;2022-11-15T14:39:11;18.90;45.10
21807;DHT22;11065;50.786;7.840;2022-11-15T14:41:37;18.80;45.20
21807;DHT22;11065;50.786;7.840;2022-11-15T14:44:05;18.70;45.20
21807;DHT22;11065;50.786;7.840;2022-11-15T14:46:32;18.60;45.30
21807;DHT22;11065;50.786;7.840;2022-11-15T14:48:58;18.60;45.40
21807;DHT22;11065;50.786;7.840;2022-11-15T14:51:25;18.50;45.50
21807;DHT22;11065;50.786;7.840;2022-11-15T14:53:52;18.40;45.50
21807;DHT22;11065;50.786;7.840;2022-11-15T14:56:20;18.50;45.60
21807;DHT22;11065;50.786;7.840;2022-11-15T14:58:47;18.40;45.70
21807;DHT22;11065;50.786;7.840;2022-11-15T15:01:26;18.30;45.70
21807;DHT22;11065;50.786;7.840;2022-11-15T15:03:53;18.30;46.10
21807;DHT22;11065;50.786;7.840;2022-11-15T15:06:25;18.20;46.00
21807;DHT22;11065;50.786;7.840;2022-11-15T15:08:52;18.20;46.00
21807;DHT22;11065;50.786;7.840;2022-11-15T15:11:24;18.10;46.10
21807;DHT22;11065;50.786;7.840;2022-11-15T15:13:52;18.00;46.10
21807;DHT22;11065;50.786;7.840;2022-11-15T15:16:19;18.00;46.10
21807;DHT22;11065;50.786;7.840;2022-11-15T15:18:46;17.90;46.10
21807;DHT22;11065;50.786;7.840;2022-11-15T15:21:28;17.90;46.20
21807;DHT22;11065;50.786;7.840;2022-11-15T15:24:03;17.80;46.30
21807;DHT22;11065;50.786;7.840;2022-11-15T15:26:30;17.70;46.70
21807;DHT22;11065;50.786;7.840;2022-11-15T15:29:00;17.70;46.30
21807;DHT22;11065;50.786;7.840;2022-11-15T15:31:27;17.70;46.40
21807;DHT22;11065;50.786;7.840;2022-11-15T15:33:53;17.60;46.50
21807;DHT22;11065;50.786;7.840;2022-11-15T15:36:20;17.60;46.50
21807;DHT22;11065;50.786;7.840;2022-11-15T15:38:47;17.50;46.50
21807;DHT22;11065;50.786;7.840;2022-11-15T15:41:15;17.50;46.50
21807;DHT22;11065;50.786;7.840;2022-11-15T15:43:42;17.50;46.60
21807;DHT22;11065;50.786;7.840;2022-11-15T15:46:15;17.40;46.60
21807;DHT22;11065;50.786;7.840;2022-11-15T15:48:42;17.30;46.70
21807;DHT22;11065;50.786;7.840;2022-11-15T15:51:09;17.30;46.80
21807;DHT22;11065;50.786;7.840;2022-11-15T15:53:46;17.30;46.90
21807;DHT22;11065;50.786;7.840;2022-11-15T15:56:12;17.20;46.90
21807;DHT22;11065;50.786;7.840;2022-11-15T15:58:39;17.20;47.00
21807;DHT22;11065;50.786;7.840;2022-11-15T16:01:06;17.10;47.00
21807;DHT22;11065;50.786;7.840;2022-11-15T16:03:33;17.10;47.50
21807;DHT22;11065;50.786;7.840;2022-11-15T16:05:59;17.10;47.20
21807;DHT22;11065;50.786;7.840;2022-11-15T16:08:27;17.00;47.20
21807;DHT22;11065;50.786;7.840;2022-11-15T16:11:16;17.00;47.30
21807;DHT22;11065;50.786;7.840;2022-11-15T16:13:42;17.00;47.40
21807;DHT22;11065;50.786;7.840;2022-11-15T16:16:12;16.90;47.40
21807;DHT22;11065;50.786;7.840;2022-11-15T16:18:40;16.90;47.60
21807;DHT22;11065;50.786;7.840;2022-11-15T16:21:07;16.90;47.60
21807;DHT22;11065;50.786;7.840;2022-11-15T16:23:34;16.80;47.70
21807;DHT22;11065;50.786;7.840;2022-11-15T16:26:01;16.80;47.70
21807;DHT22;11065;50.786;7.840;2022-11-15T16:28:31;16.80;47.80
21807;DHT22;11065;50.786;7.840;2022-11-15T16:33:31;16.70;48.00
21807;DHT22;11065;50.786;7.840;2022-11-15T16:35:58;16.70;48.00
21807;DHT22;11065;50.786;7.840;2022-11-15T16:38:25;16.70;48.00
21807;DHT22;11065;50.786;7.840;2022-11-15T16:40:52;16.60;48.00
21807;DHT22;11065;50.786;7.840;2022-11-15T16:43:19;16.60;48.10
21807;DHT22;11065;50.786;7.840;2022-11-15T16:45:48;16.60;48.20
21807;DHT22;11065;50.786;7.840;2022-11-15T16:48:25;16.60;48.30
21807;DHT22;11065;50.786;7.840;2022-11-15T16:50:56;16.50;48.40
21807;DHT22;11065;50.786;7.840;2022-11-15T16:53:24;16.50;48.40
21807;DHT22;11065;50.786;7.840;2022-11-15T16:55:51;16.50;48.40
21807;DHT22;11065;50.786;7.840;2022-11-15T16:58:18;16.50;48.50
21807;DHT22;11065;50.786;7.840;2022-11-15T17:00:53;16.50;48.50
21807;DHT22;11065;50.786;7.840;2022-11-15T17:03:24;16.50;48.70
21807;DHT22;11065;50.786;7.840;2022-11-15T17:05:51;16.50;48.70
21807;DHT22;11065;50.786;7.840;2022-11-15T17:08:18;16.40;48.60
21807;DHT22;11065;50.786;7.840;2022-11-15T17:10:47;16.40;48.60
21807;DHT22;11065;50.786;7.840;2022-11-15T17:13:14;16.40;48.70
21807;DHT22;11065;50.786;7.840;2022-11-15T17:15:41;16.40;48.80
21807;DHT22;11065;50.786;7.840;2022-11-15T17:18:10;16.30;48.80
21807;DHT22;11065;50.786;7.840;2022-11-15T17:20:39;16.30;49.00
21807;DHT22;11065;50.786;7.840;2022-11-15T17:23:10;16.30;49.00
21807;DHT22;11065;50.786;7.840;2022-11-15T17:25:39;16.30;49.10
21807;DHT22;11065;50.786;7.840;2022-11-15T17:28:06;16.30;49.00
21807;DHT22;11065;50.786;7.840;2022-11-15T17:30:34;16.30;49.10
21807;DHT22;11065;50.786;7.840;2022-11-15T17:33:01;16.30;49.10
21807;DHT22;11065;50.786;7.840;2022-11-15T17:35:28;16.30;49.10
21807;DHT22;11065;50.786;7.840;2022-11-15T17:37:54;16.30;49.10
21807;DHT22;11065;50.786;7.840;2022-11-15T17:40:21;16.30;49.20
21807;DHT22;11065;50.786;7.840;2022-11-15T17:42:48;16.30;49.20
21807;DHT22;11065;50.786;7.840;2022-11-15T17:45:15;16.30;49.20
21807;DHT22;11065;50.786;7.840;2022-11-15T17:47:41;16.30;49.30
21807;DHT22;11065;50.786;7.840;2022-11-15T17:50:08;16.30;49.30
21807;DHT22;11065;50.786;7.840;2022-11-15T17:52:36;16.30;49.30
21807;DHT22;11065;50.786;7.840;2022-11-15T17:55:02;16.30;49.30
21807;DHT22;11065;50.786;7.840;2022-11-15T17:57:29;16.30;49.40
21807;DHT22;11065;50.786;7.840;2022-11-15T17:59:56;16.30;49.40
21807;DHT22;11065;50.786;7.840;2022-11-15T18:02:23;16.30;49.40
21807;DHT22;11065;50.786;7.840;2022-11-15T18:04:49;16.30;49.40
21807;DHT22;11065;50.786;7.840;2022-11-15T18:07:16;16.30;49.50
21807;DHT22;11065;50.786;7.840;2022-11-15T18:09:43;16.30;49.50
21807;DHT22;11065;50.786;7.840;2022-11-15T18:12:10;16.30;49.50